GLD879 SBNV-SNAG
Flight info
| Callsign | GLD879 |
|---|---|
| Flight time | 1h 0m |
| Altitude | 5500 |
| Route | REA 1657S04914W 1718S04901W 1746S04845W 1820S04838W DCT |
| Aircraft | BE35/M-SDFGIRY/S |
Departure
| Time | 2026-05-03 23:22 |
|---|---|
| Airport | Aeródromo Nacional de Aviação (SBNV) |
Arrival
| Time | 2026-05-04 00:22 |
|---|---|
| Airport | Araguari Airport (SNAG) |
| Time | Latitude | Longitude | Altitude | Speed | Heading |
|---|---|---|---|---|---|
| 2026-05-03 23:14 | -16.62469 | -49.34939 | 2706 ft | 0 kts | 202° |
| 2026-05-03 23:18 | -16.62466 | -49.34938 | 2706 ft | 4 kts | 202° |
| 2026-05-03 23:18 | -16.62453 | -49.34935 | 2737 ft | 2 kts | 130° |
| 2026-05-03 23:18 | -16.62456 | -49.34930 | 2733 ft | 6 kts | 120° |
| 2026-05-03 23:18 | -16.62488 | -49.34869 | 2724 ft | 12 kts | 117° |
| 2026-05-03 23:19 | -16.62537 | -49.34877 | 2723 ft | 11 kts | 300° |
| 2026-05-03 23:19 | -16.62500 | -49.34947 | 2729 ft | 11 kts | 296° |
| 2026-05-03 23:19 | -16.62462 | -49.35020 | 2739 ft | 12 kts | 301° |
| 2026-05-03 23:19 | -16.62419 | -49.35097 | 2745 ft | 13 kts | 300° |
| 2026-05-03 23:20 | -16.62369 | -49.35187 | 2749 ft | 13 kts | 303° |
| 2026-05-03 23:20 | -16.62320 | -49.35280 | 2756 ft | 16 kts | 302° |
| 2026-05-03 23:20 | -16.62291 | -49.35366 | 2763 ft | 10 kts | 250° |
| 2026-05-03 23:20 | -16.62332 | -49.35362 | 2762 ft | 10 kts | 116° |
| 2026-05-03 23:21 | -16.62337 | -49.35352 | 2762 ft | 0 kts | 120° |
| 2026-05-03 23:21 | -16.62411 | -49.35210 | 2749 ft | 64 kts | 118° |
| 2026-05-03 23:21 | -16.62730 | -49.34605 | 2766 ft | 115 kts | 119° |
| 2026-05-03 23:22 | -16.63742 | -49.33202 | 3374 ft | 126 kts | 160° |
| 2026-05-03 23:22 | -16.64569 | -49.33463 | 3590 ft | 138 kts | 226° |
| 2026-05-03 23:22 | -16.65078 | -49.34278 | 3990 ft | 129 kts | 231° |
| 2026-05-03 23:23 | -16.65607 | -49.35058 | 4310 ft | 137 kts | 231° |
| 2026-05-03 23:23 | -16.66177 | -49.35923 | 4493 ft | 153 kts | 232° |
| 2026-05-03 23:23 | -16.66774 | -49.36903 | 4488 ft | 162 kts | 239° |
| 2026-05-03 23:23 | -16.67311 | -49.37903 | 4487 ft | 157 kts | 232° |
| 2026-05-03 23:24 | -16.68099 | -49.38666 | 4474 ft | 154 kts | 212° |
| 2026-05-03 23:24 | -16.68988 | -49.39281 | 4478 ft | 154 kts | 209° |
| 2026-05-03 23:24 | -16.69907 | -49.39897 | 4472 ft | 155 kts | 209° |
| 2026-05-03 23:24 | -16.70813 | -49.40510 | 4476 ft | 157 kts | 210° |
| 2026-05-03 23:25 | -16.71708 | -49.41113 | 4496 ft | 149 kts | 209° |
| 2026-05-03 23:25 | -16.72588 | -49.41703 | 4589 ft | 150 kts | 209° |
| 2026-05-03 23:25 | -16.73176 | -49.42101 | 4653 ft | 148 kts | 209° |
| 2026-05-03 23:25 | -16.74365 | -49.42805 | 4780 ft | 146 kts | 192° |
| 2026-05-03 23:26 | -16.75038 | -49.42837 | 4843 ft | 144 kts | 169° |
| 2026-05-03 23:26 | -16.75941 | -49.42400 | 4944 ft | 146 kts | 141° |
| 2026-05-03 23:26 | -16.76669 | -49.41676 | 5039 ft | 146 kts | 136° |
| 2026-05-03 23:26 | -16.77388 | -49.40942 | 5136 ft | 142 kts | 136° |
| 2026-05-03 23:27 | -16.78117 | -49.40216 | 5248 ft | 148 kts | 138° |
| 2026-05-03 23:27 | -16.78852 | -49.39483 | 5313 ft | 145 kts | 135° |
| 2026-05-03 23:27 | -16.79586 | -49.38753 | 5352 ft | 147 kts | 137° |
| 2026-05-03 23:27 | -16.80347 | -49.38002 | 5363 ft | 151 kts | 136° |
| 2026-05-03 23:28 | -16.81106 | -49.37234 | 5369 ft | 155 kts | 136° |
| 2026-05-03 23:28 | -16.81882 | -49.36460 | 5370 ft | 152 kts | 136° |
| 2026-05-03 23:28 | -16.82647 | -49.35696 | 5365 ft | 152 kts | 136° |
| 2026-05-03 23:28 | -16.83420 | -49.34921 | 5366 ft | 155 kts | 135° |
| 2026-05-03 23:29 | -16.84196 | -49.34145 | 5366 ft | 156 kts | 136° |
| 2026-05-03 23:29 | -16.84983 | -49.33361 | 5351 ft | 153 kts | 136° |
| 2026-05-03 23:29 | -16.85751 | -49.32602 | 5347 ft | 151 kts | 135° |
| 2026-05-03 23:29 | -16.86503 | -49.31834 | 5346 ft | 151 kts | 136° |
| 2026-05-03 23:30 | -16.87271 | -49.31076 | 5344 ft | 155 kts | 135° |
| 2026-05-03 23:30 | -16.88043 | -49.30300 | 5355 ft | 157 kts | 137° |
| 2026-05-03 23:30 | -16.88838 | -49.29510 | 5347 ft | 156 kts | 135° |
| 2026-05-03 23:30 | -16.89612 | -49.28732 | 5344 ft | 156 kts | 135° |
| 2026-05-03 23:31 | -16.90410 | -49.27931 | 5349 ft | 159 kts | 136° |
| 2026-05-03 23:31 | -16.91200 | -49.27141 | 5337 ft | 156 kts | 135° |
| 2026-05-03 23:31 | -16.91987 | -49.26350 | 5339 ft | 157 kts | 136° |
| 2026-05-03 23:31 | -16.92774 | -49.25565 | 5337 ft | 156 kts | 136° |
| 2026-05-03 23:32 | -16.93561 | -49.24784 | 5334 ft | 157 kts | 135° |
| 2026-05-03 23:32 | -16.94355 | -49.23982 | 5338 ft | 157 kts | 136° |
| 2026-05-03 23:32 | -16.95168 | -49.23213 | 5339 ft | 159 kts | 143° |
| 2026-05-03 23:32 | -16.96109 | -49.22618 | 5329 ft | 156 kts | 149° |
| 2026-05-03 23:33 | -16.97063 | -49.22058 | 5323 ft | 157 kts | 148° |
| 2026-05-03 23:33 | -16.97996 | -49.21487 | 5324 ft | 152 kts | 148° |
| 2026-05-03 23:33 | -16.98906 | -49.20924 | 5331 ft | 156 kts | 148° |
| 2026-05-03 23:33 | -16.99839 | -49.20339 | 5329 ft | 158 kts | 148° |
| 2026-05-03 23:34 | -17.00791 | -49.19751 | 5322 ft | 160 kts | 148° |
| 2026-05-03 23:34 | -17.01758 | -49.19163 | 5329 ft | 161 kts | 148° |
| 2026-05-03 23:34 | -17.02720 | -49.18566 | 5332 ft | 160 kts | 148° |
| 2026-05-03 23:34 | -17.03688 | -49.17965 | 5323 ft | 161 kts | 148° |
| 2026-05-03 23:35 | -17.04642 | -49.17377 | 5325 ft | 160 kts | 148° |
| 2026-05-03 23:35 | -17.05594 | -49.16781 | 5328 ft | 160 kts | 149° |
| 2026-05-03 23:35 | -17.06545 | -49.16201 | 5327 ft | 159 kts | 148° |
| 2026-05-03 23:35 | -17.07510 | -49.15605 | 5326 ft | 160 kts | 149° |
| 2026-05-03 23:36 | -17.08460 | -49.15014 | 5328 ft | 160 kts | 148° |
| 2026-05-03 23:36 | -17.09411 | -49.14422 | 5320 ft | 157 kts | 148° |
| 2026-05-03 23:36 | -17.10356 | -49.13841 | 5329 ft | 158 kts | 148° |
| 2026-05-03 23:36 | -17.11314 | -49.13248 | 5320 ft | 159 kts | 148° |
| 2026-05-03 23:37 | -17.12271 | -49.12656 | 5319 ft | 159 kts | 148° |
| 2026-05-03 23:37 | -17.13227 | -49.12066 | 5319 ft | 159 kts | 148° |
| 2026-05-03 23:37 | -17.14165 | -49.11485 | 5322 ft | 158 kts | 148° |
| 2026-05-03 23:37 | -17.15105 | -49.10899 | 5323 ft | 157 kts | 148° |
| 2026-05-03 23:38 | -17.16047 | -49.10318 | 5319 ft | 155 kts | 148° |
| 2026-05-03 23:38 | -17.16970 | -49.09748 | 5319 ft | 155 kts | 148° |
| 2026-05-03 23:38 | -17.17904 | -49.09166 | 5334 ft | 158 kts | 147° |
| 2026-05-03 23:38 | -17.18854 | -49.08578 | 5332 ft | 159 kts | 148° |
| 2026-05-03 23:39 | -17.19818 | -49.07980 | 5330 ft | 160 kts | 148° |
| 2026-05-03 23:39 | -17.20774 | -49.07389 | 5327 ft | 157 kts | 148° |
| 2026-05-03 23:39 | -17.21713 | -49.06808 | 5333 ft | 158 kts | 146° |
| 2026-05-03 23:39 | -17.22667 | -49.06218 | 5329 ft | 158 kts | 148° |
| 2026-05-03 23:40 | -17.23611 | -49.05633 | 5329 ft | 159 kts | 148° |
| 2026-05-03 23:40 | -17.24566 | -49.05039 | 5330 ft | 159 kts | 147° |
| 2026-05-03 23:40 | -17.25520 | -49.04446 | 5341 ft | 162 kts | 148° |
| 2026-05-03 23:40 | -17.26485 | -49.03844 | 5341 ft | 160 kts | 148° |
| 2026-05-03 23:41 | -17.27456 | -49.03249 | 5332 ft | 159 kts | 148° |
| 2026-05-03 23:41 | -17.28402 | -49.02663 | 5336 ft | 159 kts | 148° |
| 2026-05-03 23:41 | -17.29355 | -49.02070 | 5332 ft | 160 kts | 147° |
| 2026-05-03 23:41 | -17.30327 | -49.01476 | 5335 ft | 161 kts | 149° |
| 2026-05-03 23:42 | -17.31296 | -49.00926 | 5331 ft | 159 kts | 149° |
| 2026-05-03 23:42 | -17.32273 | -49.00373 | 5339 ft | 159 kts | 149° |
| 2026-05-03 23:42 | -17.33242 | -48.99823 | 5337 ft | 159 kts | 149° |
| 2026-05-03 23:42 | -17.34214 | -48.99267 | 5340 ft | 159 kts | 149° |
| 2026-05-03 23:43 | -17.35185 | -48.98712 | 5339 ft | 160 kts | 149° |
| 2026-05-03 23:43 | -17.36173 | -48.98152 | 5335 ft | 159 kts | 149° |
| 2026-05-03 23:43 | -17.37136 | -48.97603 | 5335 ft | 158 kts | 149° |
| 2026-05-03 23:43 | -17.38097 | -48.97053 | 5337 ft | 158 kts | 149° |
| 2026-05-03 23:44 | -17.39059 | -48.96505 | 5335 ft | 159 kts | 149° |
| 2026-05-03 23:44 | -17.40034 | -48.95948 | 5336 ft | 159 kts | 149° |
| 2026-05-03 23:44 | -17.41014 | -48.95389 | 5335 ft | 159 kts | 149° |
| 2026-05-03 23:44 | -17.41983 | -48.94836 | 5335 ft | 159 kts | 149° |
| 2026-05-03 23:45 | -17.42950 | -48.94285 | 5339 ft | 160 kts | 149° |
| 2026-05-03 23:45 | -17.43921 | -48.93734 | 5334 ft | 159 kts | 149° |
| 2026-05-03 23:45 | -17.44901 | -48.93170 | 5332 ft | 160 kts | 149° |
| 2026-05-03 23:45 | -17.45864 | -48.92616 | 5340 ft | 159 kts | 149° |
| 2026-05-03 23:46 | -17.46836 | -48.92064 | 5336 ft | 158 kts | 149° |
| 2026-05-03 23:46 | -17.47799 | -48.91516 | 5339 ft | 159 kts | 149° |
| 2026-05-03 23:46 | -17.48774 | -48.90964 | 5337 ft | 158 kts | 149° |
| 2026-05-03 23:46 | -17.49817 | -48.90366 | 5341 ft | 156 kts | 149° |
| 2026-05-03 23:47 | -17.50780 | -48.89814 | 5341 ft | 158 kts | 148° |
| 2026-05-03 23:47 | -17.51738 | -48.89265 | 5343 ft | 158 kts | 149° |
| 2026-05-03 23:47 | -17.52709 | -48.88711 | 5342 ft | 159 kts | 148° |
| 2026-05-03 23:47 | -17.53681 | -48.88158 | 5341 ft | 157 kts | 148° |
| 2026-05-03 23:48 | -17.54625 | -48.87614 | 5338 ft | 155 kts | 149° |
| 2026-05-03 23:48 | -17.55584 | -48.87070 | 5335 ft | 156 kts | 149° |
| 2026-05-03 23:48 | -17.56546 | -48.86519 | 5337 ft | 158 kts | 149° |
| 2026-05-03 23:48 | -17.57505 | -48.85971 | 5341 ft | 160 kts | 149° |
| 2026-05-03 23:49 | -17.58486 | -48.85410 | 5344 ft | 161 kts | 148° |
| 2026-05-03 23:49 | -17.59460 | -48.84851 | 5336 ft | 158 kts | 148° |
| 2026-05-03 23:49 | -17.60101 | -48.84485 | 5334 ft | 157 kts | 148° |
| 2026-05-03 23:49 | -17.61377 | -48.83755 | 5338 ft | 158 kts | 148° |
| 2026-05-03 23:50 | -17.62347 | -48.83203 | 5340 ft | 159 kts | 148° |
| 2026-05-03 23:50 | -17.62988 | -48.82835 | 5337 ft | 159 kts | 148° |
| 2026-05-03 23:50 | -17.64268 | -48.82106 | 5333 ft | 154 kts | 148° |
| 2026-05-03 23:50 | -17.65210 | -48.81560 | 5343 ft | 158 kts | 148° |
| 2026-05-03 23:51 | -17.65860 | -48.81190 | 5344 ft | 160 kts | 149° |
| 2026-05-03 23:51 | -17.66827 | -48.80637 | 5336 ft | 155 kts | 148° |
| 2026-05-03 23:51 | -17.68089 | -48.79916 | 5339 ft | 156 kts | 148° |
| 2026-05-03 23:51 | -17.69052 | -48.79367 | 5343 ft | 158 kts | 148° |
| 2026-05-03 23:52 | -17.69695 | -48.78996 | 5338 ft | 158 kts | 148° |
| 2026-05-03 23:52 | -17.70654 | -48.78446 | 5336 ft | 158 kts | 149° |
| 2026-05-03 23:52 | -17.71623 | -48.77891 | 5343 ft | 159 kts | 148° |
| 2026-05-03 23:52 | -17.72583 | -48.77337 | 5335 ft | 158 kts | 148° |
| 2026-05-03 23:53 | -17.73558 | -48.76779 | 5339 ft | 159 kts | 149° |
| 2026-05-03 23:53 | -17.74529 | -48.76228 | 5348 ft | 161 kts | 149° |
| 2026-05-03 23:53 | -17.75505 | -48.75671 | 5346 ft | 159 kts | 149° |
| 2026-05-03 23:53 | -17.76485 | -48.75112 | 5336 ft | 160 kts | 150° |
| 2026-05-03 23:54 | -17.77557 | -48.74781 | 5342 ft | 161 kts | 167° |
| 2026-05-03 23:54 | -17.78664 | -48.74578 | 5339 ft | 165 kts | 167° |
| 2026-05-03 23:54 | -17.79795 | -48.74355 | 5333 ft | 164 kts | 167° |
| 2026-05-03 23:54 | -17.80896 | -48.74135 | 5340 ft | 159 kts | 166° |
| 2026-05-03 23:55 | -17.81969 | -48.73916 | 5329 ft | 157 kts | 165° |
| 2026-05-03 23:55 | -17.83058 | -48.73698 | 5325 ft | 159 kts | 165° |
| 2026-05-03 23:55 | -17.84130 | -48.73469 | 5340 ft | 158 kts | 165° |
| 2026-05-03 23:55 | -17.85214 | -48.73249 | 5337 ft | 158 kts | 166° |
| 2026-05-03 23:56 | -17.86291 | -48.73024 | 5336 ft | 159 kts | 164° |
| 2026-05-03 23:56 | -17.87384 | -48.72798 | 5333 ft | 159 kts | 165° |
| 2026-05-03 23:56 | -17.88453 | -48.72578 | 5340 ft | 159 kts | 165° |
| 2026-05-03 23:56 | -17.89553 | -48.72353 | 5338 ft | 161 kts | 165° |
| 2026-05-03 23:57 | -17.90649 | -48.72131 | 5340 ft | 159 kts | 165° |
| 2026-05-03 23:57 | -17.91733 | -48.71907 | 5340 ft | 159 kts | 165° |
| 2026-05-03 23:57 | -17.92835 | -48.71679 | 5337 ft | 161 kts | 165° |
| 2026-05-03 23:57 | -17.93911 | -48.71460 | 5341 ft | 158 kts | 165° |
| 2026-05-03 23:58 | -17.94998 | -48.71234 | 5333 ft | 159 kts | 165° |
| 2026-05-03 23:58 | -17.96089 | -48.71009 | 5339 ft | 161 kts | 165° |
| 2026-05-03 23:58 | -17.97174 | -48.70786 | 5331 ft | 158 kts | 165° |
| 2026-05-03 23:58 | -17.98263 | -48.70563 | 5346 ft | 162 kts | 165° |
| 2026-05-03 23:59 | -17.99385 | -48.70336 | 5343 ft | 164 kts | 165° |
| 2026-05-03 23:59 | -18.00489 | -48.70110 | 5336 ft | 160 kts | 165° |
| 2026-05-03 23:59 | -18.01578 | -48.69883 | 5333 ft | 158 kts | 165° |
| 2026-05-03 23:59 | -18.02651 | -48.69659 | 5342 ft | 161 kts | 165° |
| 2026-05-04 00:00 | -18.03740 | -48.69438 | 5342 ft | 158 kts | 165° |
| 2026-05-04 00:00 | -18.04835 | -48.69211 | 5332 ft | 159 kts | 165° |
| 2026-05-04 00:00 | -18.05910 | -48.68989 | 5338 ft | 159 kts | 165° |
| 2026-05-04 00:00 | -18.07013 | -48.68762 | 5339 ft | 160 kts | 165° |
| 2026-05-04 00:01 | -18.08107 | -48.68538 | 5340 ft | 160 kts | 165° |
| 2026-05-04 00:01 | -18.09205 | -48.68314 | 5338 ft | 160 kts | 164° |
| 2026-05-04 00:01 | -18.10288 | -48.68089 | 5339 ft | 158 kts | 164° |
| 2026-05-04 00:01 | -18.11378 | -48.67863 | 5333 ft | 158 kts | 164° |
| 2026-05-04 00:02 | -18.12392 | -48.67656 | 5338 ft | 155 kts | 164° |
| 2026-05-04 00:02 | -18.13464 | -48.67432 | 5334 ft | 157 kts | 164° |
| 2026-05-04 00:02 | -18.14535 | -48.67211 | 5335 ft | 159 kts | 165° |
| 2026-05-04 00:02 | -18.15637 | -48.66990 | 5340 ft | 160 kts | 164° |
| 2026-05-04 00:03 | -18.16721 | -48.66763 | 5339 ft | 160 kts | 164° |
| 2026-05-04 00:03 | -18.17824 | -48.66534 | 5346 ft | 160 kts | 164° |
| 2026-05-04 00:03 | -18.18911 | -48.66310 | 5349 ft | 161 kts | 165° |
| 2026-05-04 00:03 | -18.20017 | -48.66083 | 5341 ft | 161 kts | 164° |
| 2026-05-04 00:04 | -18.21102 | -48.65861 | 5341 ft | 159 kts | 163° |
| 2026-05-04 00:04 | -18.22187 | -48.65637 | 5347 ft | 156 kts | 163° |
| 2026-05-04 00:04 | -18.23265 | -48.65412 | 5337 ft | 160 kts | 165° |
| 2026-05-04 00:04 | -18.24368 | -48.65186 | 5340 ft | 161 kts | 165° |
| 2026-05-04 00:05 | -18.25463 | -48.64959 | 5340 ft | 161 kts | 165° |
| 2026-05-04 00:05 | -18.26564 | -48.64731 | 5340 ft | 160 kts | 164° |
| 2026-05-04 00:05 | -18.27649 | -48.64509 | 5348 ft | 160 kts | 164° |
| 2026-05-04 00:05 | -18.28755 | -48.64280 | 5345 ft | 159 kts | 165° |
| 2026-05-04 00:06 | -18.29852 | -48.64053 | 5347 ft | 161 kts | 165° |
| 2026-05-04 00:06 | -18.30955 | -48.63827 | 5351 ft | 162 kts | 165° |
| 2026-05-04 00:06 | -18.32059 | -48.63597 | 5353 ft | 163 kts | 165° |
| 2026-05-04 00:06 | -18.33157 | -48.63291 | 5343 ft | 159 kts | 149° |
| 2026-05-04 00:07 | -18.33951 | -48.62544 | 5346 ft | 155 kts | 126° |
| 2026-05-04 00:07 | -18.34614 | -48.61662 | 5351 ft | 155 kts | 126° |
| 2026-05-04 00:07 | -18.35288 | -48.60762 | 5347 ft | 156 kts | 126° |
| 2026-05-04 00:07 | -18.35969 | -48.59857 | 5351 ft | 156 kts | 126° |
| 2026-05-04 00:08 | -18.36642 | -48.58972 | 5345 ft | 155 kts | 126° |
| 2026-05-04 00:08 | -18.37314 | -48.58084 | 5343 ft | 155 kts | 126° |
| 2026-05-04 00:08 | -18.37984 | -48.57190 | 5346 ft | 155 kts | 126° |
| 2026-05-04 00:08 | -18.38656 | -48.56315 | 5349 ft | 156 kts | 126° |
| 2026-05-04 00:09 | -18.39338 | -48.55411 | 5349 ft | 156 kts | 126° |
| 2026-05-04 00:09 | -18.40013 | -48.54518 | 5353 ft | 157 kts | 126° |
| 2026-05-04 00:09 | -18.40697 | -48.53615 | 5355 ft | 157 kts | 126° |
| 2026-05-04 00:09 | -18.41371 | -48.52725 | 5353 ft | 156 kts | 126° |
| 2026-05-04 00:10 | -18.42051 | -48.51827 | 5355 ft | 154 kts | 126° |
| 2026-05-04 00:10 | -18.42718 | -48.50944 | 5347 ft | 155 kts | 126° |
| 2026-05-04 00:10 | -18.43381 | -48.50065 | 5347 ft | 154 kts | 126° |
| 2026-05-04 00:10 | -18.44050 | -48.49187 | 5356 ft | 154 kts | 126° |
| 2026-05-04 00:11 | -18.44727 | -48.48292 | 5351 ft | 156 kts | 126° |
| 2026-05-04 00:11 | -18.45398 | -48.47400 | 5351 ft | 154 kts | 126° |
| 2026-05-04 00:11 | -18.46062 | -48.46529 | 5351 ft | 154 kts | 126° |
| 2026-05-04 00:11 | -18.46726 | -48.45647 | 5352 ft | 155 kts | 126° |
| 2026-05-04 00:12 | -18.47396 | -48.44759 | 5351 ft | 154 kts | 126° |
| 2026-05-04 00:12 | -18.48055 | -48.43887 | 5349 ft | 152 kts | 126° |
| 2026-05-04 00:12 | -18.48722 | -48.43007 | 5352 ft | 153 kts | 127° |
| 2026-05-04 00:12 | -18.49385 | -48.42130 | 5355 ft | 152 kts | 126° |
| 2026-05-04 00:13 | -18.50042 | -48.41260 | 5350 ft | 152 kts | 126° |
| 2026-05-04 00:13 | -18.50705 | -48.40377 | 5357 ft | 155 kts | 125° |
| 2026-05-04 00:13 | -18.51378 | -48.39490 | 5362 ft | 156 kts | 126° |
| 2026-05-04 00:13 | -18.52060 | -48.38587 | 5361 ft | 158 kts | 126° |
| 2026-05-04 00:14 | -18.52744 | -48.37685 | 5363 ft | 157 kts | 126° |
| 2026-05-04 00:14 | -18.53412 | -48.36791 | 5360 ft | 156 kts | 126° |
| 2026-05-04 00:14 | -18.54084 | -48.35905 | 5371 ft | 156 kts | 126° |
| 2026-05-04 00:14 | -18.54779 | -48.34991 | 5360 ft | 159 kts | 126° |
| 2026-05-04 00:15 | -18.55450 | -48.34100 | 5369 ft | 154 kts | 125° |
| 2026-05-04 00:15 | -18.56122 | -48.33205 | 5364 ft | 156 kts | 126° |
| 2026-05-04 00:15 | -18.56791 | -48.32312 | 5373 ft | 156 kts | 126° |
| 2026-05-04 00:15 | -18.57470 | -48.31422 | 5373 ft | 155 kts | 125° |
| 2026-05-04 00:16 | -18.58140 | -48.30536 | 5375 ft | 154 kts | 126° |
| 2026-05-04 00:16 | -18.58801 | -48.29657 | 5380 ft | 155 kts | 126° |
| 2026-05-04 00:16 | -18.59494 | -48.28738 | 5379 ft | 158 kts | 126° |
| 2026-05-04 00:16 | -18.60199 | -48.27804 | 5146 ft | 163 kts | 125° |
| 2026-05-04 00:17 | -18.60898 | -48.26866 | 4897 ft | 163 kts | 126° |
| 2026-05-04 00:17 | -18.61600 | -48.25940 | 4622 ft | 160 kts | 126° |
| 2026-05-04 00:17 | -18.62281 | -48.25040 | 4350 ft | 154 kts | 126° |
| 2026-05-04 00:17 | -18.62935 | -48.24179 | 4202 ft | 143 kts | 126° |
| 2026-05-04 00:18 | -18.63532 | -48.23381 | 4191 ft | 136 kts | 126° |
| 2026-05-04 00:18 | -18.64111 | -48.22613 | 4196 ft | 133 kts | 125° |
| 2026-05-04 00:18 | -18.64682 | -48.21854 | 4191 ft | 132 kts | 125° |
| 2026-05-04 00:18 | -18.65258 | -48.21090 | 4201 ft | 132 kts | 124° |
| 2026-05-04 00:19 | -18.65821 | -48.20339 | 4202 ft | 132 kts | 125° |
| 2026-05-04 00:19 | -18.66381 | -48.19596 | 4205 ft | 117 kts | 126° |
| 2026-05-04 00:19 | -18.66854 | -48.18962 | 4197 ft | 104 kts | 120° |
| 2026-05-04 00:19 | -18.66830 | -48.18277 | 4202 ft | 101 kts | 53° |
| 2026-05-04 00:20 | -18.66198 | -48.17902 | 4206 ft | 105 kts | 33° |
| 2026-05-04 00:20 | -18.65560 | -48.17545 | 4205 ft | 102 kts | 34° |
| 2026-05-04 00:20 | -18.64926 | -48.17194 | 4200 ft | 104 kts | 33° |
| 2026-05-04 00:20 | -18.64274 | -48.16835 | 4179 ft | 106 kts | 32° |
| 2026-05-04 00:21 | -18.63518 | -48.16875 | 3982 ft | 128 kts | 322° |
| 2026-05-04 00:21 | -18.63425 | -48.17765 | 3744 ft | 131 kts | 227° |
| 2026-05-04 00:21 | -18.64182 | -48.17952 | 3621 ft | 113 kts | 158° |
| 2026-05-04 00:21 | -18.64960 | -48.17897 | 3518 ft | 113 kts | 191° |
| 2026-05-04 00:22 | -18.65674 | -48.18269 | 3295 ft | 115 kts | 210° |
| 2026-05-04 00:22 | -18.66327 | -48.18720 | 3131 ft | 103 kts | 211° |
| 2026-05-04 00:22 | -18.66737 | -48.18988 | 3125 ft | 27 kts | 205° |
| 2026-05-04 00:22 | -18.66751 | -48.19014 | 3125 ft | 13 kts | 30° |
| 2026-05-04 00:23 | -18.66669 | -48.18952 | 3126 ft | 18 kts | 33° |
| 2026-05-04 00:23 | -18.66571 | -48.18886 | 3127 ft | 16 kts | 32° |
| 2026-05-04 00:23 | -18.66477 | -48.18821 | 3126 ft | 17 kts | 33° |
| 2026-05-04 00:23 | -18.66396 | -48.18771 | 3125 ft | 11 kts | 3° |
| 2026-05-04 00:24 | -18.66342 | -48.18839 | 3124 ft | 10 kts | 268° |
| 2026-05-04 00:24 | -18.66346 | -48.18893 | 3123 ft | 0 kts | 305° |